MV Wenatchee — WCY3378 — position and weather

sailwx.info

Track history (hours):
 
Tides and Currents Weather Stations Pressure Air Temp Water Temp Dewpoint Dewpoint Depression Visibility Wind Speed Wind Dir Waves Ship Positions

MV Wenatchee

Owner: Washington, State of; Department of Tranportation, OLYMPIA, WA. More information available from US FCC via Universal Licensing System and Coast Guard Vessel Documentation Center.

Last reported at 2017-Dec-11 17:00 UTC. Time now 2017-Dec-14 02:43 UTC.
Position N 47°37' W 122°26'.

Length 95 m; draft 5.6 m.

Type: Passenger vessel. MMSI: 366749710.

Date/timePositionNaut miles runAvg speedWind from/ knotsBaromVisibWave heightAir tempDewpointWater temp
2017-Dec-11 17:00N 47°37' W 122°26'3 6.0
2017-Dec-11 16:30N 47°37' W 122°31'611.6
2017-Dec-11 16:00N 47°36' W 122°22'0 0.8
2017-Dec-11 15:31N 47°36' W 122°22'611.2
2017-Dec-11 14:58N 47°37' W 122°31'2 5.1
2017-Dec-11 14:30N 47°36' W 122°28'5 9.2
2017-Dec-11 13:58N 47°36' W 122°20'511.8
2017-Dec-11 13:30N 47°36' W 122°28'2 3.3
2017-Dec-11 12:59N 47°37' W 122°31'0 0.0
2017-Dec-11 12:26N 47°37' W 122°31'0 0.0
2017-Dec-11 11:59N 47°37' W 122°31'0 0.0
2017-Dec-11 11:29N 47°37' W 122°31'0 0.0
2017-Dec-11 10:59N 47°37' W 122°31'1 3.0
2017-Dec-11 10:30N 47°36' W 122°29'611.8
2017-Dec-11 10:00N 47°36' W 122°20'612.7
2017-Dec-11 09:30N 47°37' W 122°30'2 3.4
2017-Dec-11 09:00N 47°36' W 122°28'5 9.2
2017-Dec-11 08:30N 47°36' W 122°21'713.3
2017-Dec-11 08:00N 47°37' W 122°30'3 5.4
2017-Dec-11 07:30N 47°36' W 122°27'4 7.5
2017-Dec-11 07:00N 47°36' W 122°21'612.0
2017-Dec-11 06:29N 47°37' W 122°31'4 8.0
2017-Dec-11 06:00N 47°36' W 122°25'3 6.2
2017-Dec-11 05:29N 47°36' W 122°20'613.1
2017-Dec-11 05:00N 47°37' W 122°30'0 0.9
2017-Dec-11 04:30N 47°36' W 122°29'611.0
2017-Dec-11 03:59N 47°36' W 122°20'2 4.6
2017-Dec-11 03:30N 47°37' W 122°24'5 9.5
2017-Dec-11 03:00N 47°37' W 122°31'4 8.2
2017-Dec-11 02:30N 47°36' W 122°25'3 5.8
2017-Dec-11 02:00N 47°36' W 122°20'714.1
2017-Dec-11 01:30N 47°37' W 122°30'1 2.4
2017-Dec-11 01:00N 47°36' W 122°29'611.5
2017-Dec-11 00:29N 47°36' W 122°20'510.0
2017-Dec-11 00:00N 47°36' W 122°27'2 4.5
2017-Dec-10 23:30N 47°37' W 122°31'713.6
2017-Dec-10 23:00N 47°36' W 122°21'1 2.7
2017-Dec-10 22:30N 47°36' W 122°23'510.7
2017-Dec-10 22:00N 47°37' W 122°31'2 4.4
2017-Dec-10 21:30N 47°36' W 122°28'5 8.4
2017-Dec-10 20:54N 47°36' W 122°20'513.1
2017-Dec-10 20:31N 47°37' W 122°28'2 3.6
2017-Dec-10 20:00N 47°37' W 122°31'611.0
2017-Dec-10 19:30N 47°36' W 122°23'1 2.7
2017-Dec-10 18:58N 47°36' W 122°20'613.6
2017-Dec-10 18:30N 47°37' W 122°30'0 0.1
2017-Dec-10 18:00N 47°37' W 122°30'611.8
2017-Dec-10 17:29N 47°36' W 122°20'3 7.4
2017-Dec-10 17:00N 47°37' W 122°26'3 6.4
2017-Dec-10 16:28N 47°37' W 122°31'511.8
2017-Dec-10 16:00N 47°36' W 122°23'1 2.5
2017-Dec-10 15:30N 47°36' W 122°21'712.8
2017-Dec-10 15:00N 47°37' W 122°31'1 2.9
2017-Dec-10 14:31N 47°36' W 122°29'611.6
2017-Dec-10 14:00N 47°36' W 122°20'511.1
2017-Dec-10 13:31N 47°36' W 122°28'2 3.5
2017-Dec-10 12:59N 47°37' W 122°31'0 0.0
2017-Dec-10 12:29N 47°37' W 122°31'0 0.0
2017-Dec-10 11:59N 47°37' W 122°31'0 0.0
2017-Dec-10 11:29N 47°37' W 122°31'0 0.0
2017-Dec-10 10:59N 47°37' W 122°31'4 9.0
2017-Dec-10 10:30N 47°36' W 122°24'3 5.1
2017-Dec-10 10:00N 47°36' W 122°20'613.1
2017-Dec-10 09:30N 47°37' W 122°30'2 4.3
2017-Dec-10 09:00N 47°36' W 122°27'4 8.8
2017-Dec-10 08:30N 47°36' W 122°20'713.7
2017-Dec-10 08:00N 47°37' W 122°30'3 5.1
2017-Dec-10 07:30N 47°37' W 122°27'4 8.5
2017-Dec-10 07:00N 47°36' W 122°21'713.6
2017-Dec-10 06:30N 47°37' W 122°30'3 6.5
2017-Dec-10 06:00N 47°36' W 122°26'4 7.5
2017-Dec-10 05:30N 47°36' W 122°20'612.8
2017-Dec-10 05:00N 47°37' W 122°30'1 1.7
2017-Dec-10 04:30N 47°36' W 122°29'6 7.6
2017-Dec-10 03:46N 47°36' W 122°20'313.3
2017-Dec-10 03:31N 47°37' W 122°25'4 6.9
2017-Dec-10 03:00N 47°37' W 122°31'612.3
2017-Dec-10 02:30N 47°36' W 122°22'2 4.0
2017-Dec-10 02:00N 47°37' W 122°25'4 7.9
2017-Dec-10 01:30N 47°37' W 122°31'611.7
2017-Dec-10 01:01N 47°36' W 122°22'1 2.3
2017-Dec-10 00:30N 47°36' W 122°21'712.8
2017-Dec-09 23:59N 47°37' W 122°31'1 2.5
2017-Dec-09 23:31N 47°36' W 122°29'6 7.4
2017-Dec-09 22:41N 47°36' W 122°20'1 3.4
2017-Dec-09 22:31N 47°36' W 122°21'612.7
2017-Dec-09 22:01N 47°37' W 122°31'3 5.8
2017-Dec-09 21:30N 47°36' W 122°27'4 8.1
2017-Dec-09 21:00N 47°36' W 122°20'612.6
2017-Dec-09 20:30N 47°37' W 122°29'1 1.3
2017-Dec-09 20:00N 47°37' W 122°30'612.1
2017-Dec-09 19:30N 47°36' W 122°21'0 0.8
2017-Dec-09 19:00N 47°36' W 122°21'612.5
2017-Dec-09 18:31N 47°37' W 122°30'2 4.4
2017-Dec-09 18:00N 47°36' W 122°28'5 9.3
2017-Dec-09 17:28N 47°36' W 122°20'4 8.9
2017-Dec-09 17:00N 47°36' W 122°26'3 5.8
2017-Dec-09 16:30N 47°37' W 122°31'611.9
2017-Dec-09 16:01N 47°36' W 122°22'0 0.7
2017-Dec-09 15:30N 47°36' W 122°21'611.6
2017-Dec-09 14:58N 47°37' W 122°31'2 4.4
2017-Dec-09 14:30N 47°36' W 122°28'5 9.9
2017-Dec-09 13:59N 47°36' W 122°20'510.9
2017-Dec-09 13:30N 47°36' W 122°28'2 3.7
2017-Dec-09 12:59N 47°37' W 122°31'0 0.0
2017-Dec-09 12:29N 47°37' W 122°31'0 0.0
2017-Dec-09 11:59N 47°37' W 122°31'0 0.0
2017-Dec-09 11:29N 47°37' W 122°31'0 0.0
2017-Dec-09 10:59N 47°37' W 122°31'0 0.0
2017-Dec-09 10:29N 47°37' W 122°31'0 0.0
2017-Dec-09 09:59N 47°37' W 122°31'0 0.0
2017-Dec-09 09:29N 47°37' W 122°31'0 0.0
2017-Dec-09 08:59N 47°37' W 122°31'0 0.0
2017-Dec-09 08:29N 47°37' W 122°31'0 0.0
2017-Dec-09 08:00N 47°37' W 122°31'0 0.0
2017-Dec-09 07:29N 47°37' W 122°31'0 0.0
2017-Dec-09 06:59N 47°37' W 122°31'1 2.5
2017-Dec-09 06:30N 47°36' W 122°29'611.5
2017-Dec-09 05:59N 47°36' W 122°20'0 0.1
2017-Dec-09 05:30N 47°36' W 122°20'612.7
2017-Dec-09 05:01N 47°37' W 122°30'1 2.5
2017-Dec-09 04:31N 47°36' W 122°28'510.0
2017-Dec-09 03:58N 47°36' W 122°20'3 7.3
2017-Dec-09 03:30N 47°37' W 122°25'4 7.1
2017-Dec-09 03:00N 47°37' W 122°31'713.7
2017-Dec-09 02:30N 47°36' W 122°21'1 1.8
2017-Dec-09 02:00N 47°36' W 122°22'611.0
2017-Dec-09 01:28N 47°37' W 122°31'2 5.5
2017-Dec-09 01:01N 47°36' W 122°27'5 8.7
2017-Dec-09 00:29N 47°36' W 122°20'511.3
2017-Dec-09 00:00N 47°36' W 122°28'2 3.6
2017-Dec-08 23:30N 47°37' W 122°31'713.6
2017-Dec-08 23:00N 47°36' W 122°21'1 1.0
2017-Dec-08 22:31N 47°36' W 122°21'612.7
2017-Dec-08 22:01N 47°37' W 122°31'1 2.1
2017-Dec-08 21:30N 47°37' W 122°29'612.1
2017-Dec-08 21:00N 47°36' W 122°20'5 9.7
2017-Dec-08 20:30N 47°37' W 122°27'2 4.4
2017-Dec-08 20:00N 47°37' W 122°31'611.4
2017-Dec-08 19:31N 47°36' W 122°22'1 2.6
2017-Dec-08 19:00N 47°36' W 122°20'612.5
2017-Dec-08 18:30N 47°36' W 122°29'1 1.2
2017-Dec-08 18:00N 47°37' W 122°30'612.7
2017-Dec-08 17:30N 47°36' W 122°20'4 8.2
2017-Dec-08 17:00N 47°36' W 122°27'3 5.7
2017-Dec-08 16:30N 47°37' W 122°30'612.3
2017-Dec-08 16:01N 47°36' W 122°22'1 1.6
2017-Dec-08 15:30N 47°36' W 122°23'5 9.4
2017-Dec-08 14:56N 47°37' W 122°31'2 5.6
2017-Dec-08 14:30N 47°36' W 122°28'5 9.9
2017-Dec-08 14:00N 47°36' W 122°20'510.8
2017-Dec-08 13:30N 47°36' W 122°28'2 3.5
2017-Dec-08 12:59N 47°37' W 122°31'0 0.0
2017-Dec-08 12:28N 47°37' W 122°31'0 0.0
2017-Dec-08 11:58N 47°37' W 122°31'0 0.0
2017-Dec-08 11:28N 47°37' W 122°31'0 0.0
2017-Dec-08 10:58N 47°37' W 122°31'0 0.0
2017-Dec-08 10:28N 47°37' W 122°31'0 0.0
2017-Dec-08 09:58N 47°37' W 122°31'0 0.0
2017-Dec-08 09:28N 47°37' W 122°31'0 0.0
2017-Dec-08 08:58N 47°37' W 122°31'0 0.0
2017-Dec-08 08:28N 47°37' W 122°31'0 0.0
2017-Dec-08 07:58N 47°37' W 122°31'0 0.0
2017-Dec-08 07:25N 47°37' W 122°31'0 0.0
2017-Dec-08 06:58N 47°37' W 122°31'0 0.6
2017-Dec-08 06:30N 47°37' W 122°30'712.8
2017-Dec-08 05:59N 47°36' W 122°20'0 0.0
2017-Dec-08 05:29N 47°36' W 122°20'612.9
2017-Dec-08 05:00N 47°37' W 122°30'1 1.4
2017-Dec-08 04:31N 47°36' W 122°29'611.2
2017-Dec-08 04:00N 47°36' W 122°20'2 3.5
2017-Dec-08 03:31N 47°37' W 122°23'5 9.8
2017-Dec-08 02:59N 47°37' W 122°31'511.4
2017-Dec-08 02:30N 47°36' W 122°23'2 3.1
2017-Dec-08 02:00N 47°36' W 122°21'712.8
2017-Dec-08 01:28N 47°37' W 122°31'2 4.3
2017-Dec-08 01:00N 47°36' W 122°28'510.2
2017-Dec-08 00:29N 47°36' W 122°20'5 9.9
2017-Dec-08 00:00N 47°36' W 122°27'2 4.6
2017-Dec-07 23:30N 47°37' W 122°31'713.6
2017-Dec-07 23:00N 47°36' W 122°21'0 0.5
2017-Dec-07 22:31N 47°36' W 122°21'713.1
2017-Dec-07 22:00N 47°37' W 122°31'2 3.4
2017-Dec-07 21:30N 47°36' W 122°29'611.0
2017-Dec-07 21:00N 47°36' W 122°20'611.3
2017-Dec-07 20:30N 47°36' W 122°29'2 3.3
2017-Dec-07 20:00N 47°37' W 122°31'510.8
2017-Dec-07 19:30N 47°36' W 122°23'2 3.1
2017-Dec-07 19:00N 47°36' W 122°20'612.6
2017-Dec-07 18:31N 47°36' W 122°29'1 1.5
2017-Dec-07 18:00N 47°37' W 122°30'611.9
2017-Dec-07 17:28N 47°36' W 122°20'3 7.1
2017-Dec-07 17:01N 47°36' W 122°25'4 7.2
2017-Dec-07 16:29N 47°37' W 122°31'511.0
2017-Dec-07 16:00N 47°36' W 122°23'1 1.9
2017-Dec-07 15:30N 47°36' W 122°21'612.2
2017-Dec-07 14:59N 47°37' W 122°31'2 4.0
2017-Dec-07 14:30N 47°36' W 122°29'610.1
2017-Dec-07 13:58N 47°36' W 122°20'510.6
2017-Dec-07 13:31N 47°36' W 122°28'2 4.4
2017-Dec-07 13:00N 47°37' W 122°31'0 0.0
2017-Dec-07 12:30N 47°37' W 122°31'0 0.0
2017-Dec-07 11:57N 47°37' W 122°31'0 0.0
2017-Dec-07 11:30N 47°37' W 122°31'0 0.0
2017-Dec-07 11:00N 47°37' W 122°31'0 0.0
2017-Dec-07 10:30N 47°37' W 122°31'0 0.0
2017-Dec-07 10:00N 47°37' W 122°31'0 0.0
2017-Dec-07 09:27N 47°37' W 122°31'0 0.0
2017-Dec-07 09:00N 47°37' W 122°31'0 0.0
2017-Dec-07 08:30N 47°37' W 122°31'0 0.0
2017-Dec-07 08:00N 47°37' W 122°31'0 0.0
2017-Dec-07 07:30N 47°37' W 122°31'0 0.0
2017-Dec-07 07:00N 47°37' W 122°31'1 1.3
2017-Dec-07 06:30N 47°37' W 122°30'611.8
2017-Dec-07 05:58N 47°36' W 122°20'0 0.0
2017-Dec-07 05:30N 47°36' W 122°20'713.4
2017-Dec-07 05:00N 47°37' W 122°30'1 2.5
2017-Dec-07 04:30N 47°36' W 122°29'611.7
2017-Dec-07 04:00N 47°36' W 122°20'3 5.3
2017-Dec-07 03:30N 47°37' W 122°24'4 8.4
2017-Dec-07 03:00N 47°37' W 122°31'612.4
2017-Dec-07 02:30N 47°36' W 122°22'0 1.0
2017-Dec-07 02:00N 47°36' W 122°21'712.0
2017-Dec-07 01:28N 47°37' W 122°31'2 5.4
2017-Dec-07 01:00N 47°36' W 122°27'5 9.0
2017-Dec-07 00:29N 47°36' W 122°20'511.0
2017-Dec-07 00:00N 47°36' W 122°28'2 3.8
2017-Dec-06 23:31N 47°37' W 122°31'713.7
2017-Dec-06 23:01N 47°36' W 122°21'0 1.0
2017-Dec-06 22:30N 47°36' W 122°21'611.9
2017-Dec-06 21:58N 47°37' W 122°31'2 3.5
2017-Dec-06 21:30N 47°36' W 122°29'611.4
2017-Dec-06 21:00N 47°36' W 122°20'  
2017-Dec-04 10:29N 47°37' W 122°31'0 0.0
2017-Dec-04 09:59N 47°37' W 122°31'0 0.0
2017-Dec-04 09:29N 47°37' W 122°31'0 0.0
2017-Dec-04 08:59N 47°37' W 122°31'0 0.0
2017-Dec-04 08:29N 47°37' W 122°31'0 0.0
2017-Dec-04 07:59N 47°37' W 122°31'0 0.0
2017-Dec-04 07:29N 47°37' W 122°31'4 8.9
2017-Dec-04 07:00N 47°36' W 122°25'3 5.6
2017-Dec-04 06:30N 47°36' W 122°20'510.8
2017-Dec-04 06:00N 47°36' W 122°28'2 3.3
2017-Dec-04 05:30N 47°37' W 122°30'713.7
2017-Dec-04 05:00N 47°36' W 122°20'3 5.0
2017-Dec-04 04:30N 47°36' W 122°24'4 8.3
2017-Dec-04 03:59N 47°37' W 122°31'4 8.4
2017-Dec-04 03:30N 47°37' W 122°25'3 5.8
2017-Dec-04 03:00N 47°36' W 122°20'713.8
2017-Dec-04 02:30N 47°37' W 122°30'0 0.1
2017-Dec-04 02:00N 47°37' W 122°30'713.7
2017-Dec-04 01:30N 47°36' W 122°20'0 1.0
2017-Dec-04 01:00N 47°36' W 122°21'612.6
2017-Dec-04 00:30N 47°37' W 122°31'3 6.3
2017-Dec-04 00:00N 47°36' W 122°26'4 8.1
2017-Dec-03 23:30N 47°36' W 122°20'612.8
2017-Dec-03 23:01N 47°37' W 122°30'0 0.2
2017-Dec-03 22:30N 47°37' W 122°30'612.7
2017-Dec-03 22:00N 47°36' W 122°20'2 4.0
2017-Dec-03 21:30N 47°36' W 122°23'5 8.7
2017-Dec-03 20:56N 47°37' W 122°31'510.7
2017-Dec-03 20:30N 47°36' W 122°24'2 4.6
2017-Dec-03 20:00N 47°36' W 122°20'713.9
2017-Dec-03 19:30N 47°37' W 122°30'0 1.0
2017-Dec-03 19:00N 47°37' W 122°30'612.1
2017-Dec-03 18:29N 47°36' W 122°20'3 6.9
2017-Dec-03 18:00N 47°36' W 122°25'4 7.3
2017-Dec-03 17:30N 47°37' W 122°31'511.1
2017-Dec-03 17:00N 47°36' W 122°23'1 2.6
2017-Dec-03 16:30N 47°35' W 122°21'0 0.2
2017-Dec-03 15:59N 47°35' W 122°21'0 0.0
2017-Dec-03 15:30N 47°35' W 122°21'0 0.0
2017-Dec-03 14:59N 47°35' W 122°21'1 2.0
2017-Dec-03 14:31N 47°36' W 122°21'612.1
2017-Dec-03 14:00N 47°37' W 122°30'1 1.4
2017-Dec-03 13:29N 47°37' W 122°31'0 0.0
2017-Dec-03 12:58N 47°37' W 122°31'0 0.0
2017-Dec-03 12:30N 47°37' W 122°31'0 0.0
2017-Dec-03 12:00N 47°37' W 122°31'0 0.0
2017-Dec-03 11:30N 47°37' W 122°31'0 0.0
2017-Dec-03 11:00N 47°37' W 122°31'0 0.0
2017-Dec-03 10:30N 47°37' W 122°31'0 0.0
2017-Dec-03 10:00N 47°37' W 122°31'0 0.0
2017-Dec-03 09:30N 47°37' W 122°31'0 0.0
2017-Dec-03 09:00N 47°37' W 122°31'0 0.0
2017-Dec-03 08:30N 47°37' W 122°31'0 0.0
2017-Dec-03 07:57N 47°37' W 122°31'0 0.0
2017-Dec-03 07:30N 47°37' W 122°31'2 4.0
2017-Dec-03 07:00N 47°36' W 122°28'5 9.8
2017-Dec-03 06:28N 47°36' W 122°20'4 9.2
2017-Dec-03 06:00N 47°37' W 122°27'3 5.1
2017-Dec-03 05:30N 47°37' W 122°30'713.3
2017-Dec-03 05:00N 47°36' W 122°21'2 4.0
2017-Dec-03 04:31N 47°37' W 122°24'5 9.5
2017-Dec-03 04:00N 47°37' W 122°31'4 8.4
2017-Dec-03 03:30N 47°36' W 122°25'3 5.5
2017-Dec-03 03:00N 47°36' W 122°20'713.8
2017-Dec-03 02:30N 47°37' W 122°30'0 0.2
2017-Dec-03 02:00N 47°37' W 122°31'713.4
2017-Dec-03 01:29N 47°36' W 122°20'1 2.1
2017-Dec-03 01:00N 47°36' W 122°22'610.8
2017-Dec-03 00:28N 47°37' W 122°31'3 7.4
2017-Dec-03 00:01N 47°36' W 122°26'4 7.1
2017-Dec-02 23:29N 47°36' W 122°20'613.1
2017-Dec-02 23:00N 47°37' W 122°30'0 0.8
2017-Dec-02 22:30N 47°37' W 122°30'712.0
2017-Dec-02 21:58N 47°36' W 122°20'3 7.2
2017-Dec-02 21:30N 47°37' W 122°25'4 7.1
2017-Dec-02 20:59N 47°37' W 122°31'5 9.8
2017-Dec-02 20:30N 47°36' W 122°24'2 4.4
2017-Dec-02 20:00N 47°36' W 122°20'713.8
2017-Dec-02 19:30N 47°37' W 122°31'1 1.7
2017-Dec-02 19:00N 47°37' W 122°30'611.5
2017-Dec-02 18:28N 47°36' W 122°20'4 9.2
2017-Dec-02 18:00N 47°37' W 122°27'3 5.3
2017-Dec-02 17:29N 47°37' W 122°31'511.3
2017-Dec-02 17:00N 47°36' W 122°23'1 2.9
2017-Dec-02 16:30N 47°36' W 122°20'612.6
2017-Dec-02 16:00N 47°37' W 122°30'1 2.0
2017-Dec-02 15:30N 47°37' W 122°30'0 0.1
2017-Dec-02 15:00N 47°37' W 122°31'0 0.0
2017-Dec-02 14:30N 47°37' W 122°31'0 0.0
2017-Dec-02 14:00N 47°37' W 122°31'0 0.0
2017-Dec-02 13:30N 47°37' W 122°31'0 0.0
2017-Dec-02 13:00N 47°37' W 122°31'0 0.0
2017-Dec-02 12:30N 47°37' W 122°31'0 0.0
2017-Dec-02 12:00N 47°37' W 122°31'0 0.0
2017-Dec-02 11:30N 47°37' W 122°31'0 0.0
2017-Dec-02 11:00N 47°37' W 122°31'0 0.0
2017-Dec-02 10:27N 47°37' W 122°31'2 5.4
2017-Dec-02 10:00N 47°36' W 122°27'4 8.8
2017-Dec-02 09:30N 47°36' W 122°21'712.7
2017-Dec-02 08:59N 47°37' W 122°31'4 8.0
2017-Dec-02 08:31N 47°36' W 122°25'1 2.7
2017-Dec-02 08:00N 47°36' W 122°23'510.4
2017-Dec-02 07:30N 47°37' W 122°31'611.4
2017-Dec-02 07:00N 47°37' W 122°22'1 2.4
2017-Dec-02 06:29N 47°36' W 122°20'4 8.8
2017-Dec-02 06:00N 47°37' W 122°27'3 5.5
2017-Dec-02 05:30N 47°37' W 122°30'713.2
2017-Dec-02 04:59N 47°36' W 122°20'2 3.8
2017-Dec-02 04:30N 47°36' W 122°23'5 9.3
2017-Dec-02 03:58N 47°37' W 122°31'4 9.1
2017-Dec-02 03:31N 47°36' W 122°25'3 5.3
2017-Dec-02 03:00N 47°36' W 122°21'712.4
2017-Dec-02 02:28N 47°37' W 122°31'2 4.5
2017-Dec-02 02:01N 47°36' W 122°28'510.0
2017-Dec-02 01:30N 47°36' W 122°20'2 3.9
2017-Dec-02 01:01N 47°37' W 122°23'5 9.1
2017-Dec-02 00:28N 47°37' W 122°31'4 8.3
2017-Dec-02 00:00N 47°36' W 122°25'3 6.4
2017-Dec-01 23:30N 47°36' W 122°20'613.2
2017-Dec-01 23:00N 47°37' W 122°30'0 0.5
2017-Dec-01 22:30N 47°37' W 122°30'612.5
2017-Dec-01 22:00N 47°36' W 122°20'2 4.2
2017-Dec-01 21:30N 47°37' W 122°23'5 9.5
2017-Dec-01 21:00N 47°37' W 122°31'4 8.1
2017-Dec-01 20:30N 47°36' W 122°25'3 5.9
2017-Dec-01 20:00N 47°36' W 122°20'713.9
2017-Dec-01 19:30N 47°37' W 122°30'1 3.0
2017-Dec-01 19:00N 47°36' W 122°29'610.4
2017-Dec-01 18:27N 47°36' W 122°20'2 5.1
2017-Dec-01 18:01N 47°37' W 122°24'5 8.9
2017-Dec-01 17:29N 47°37' W 122°31'3 6.3
2017-Dec-01 17:01N 47°36' W 122°27'  
Track history (hours):
 
Tides and Currents Weather Stations Pressure Air Temp Water Temp Dewpoint Dewpoint Depression Visibility Wind Speed Wind Dir Waves Ship Positions

MV Wenatchee

Owner: Washington, State of; Department of Tranportation, OLYMPIA, WA. More information available from US FCC via Universal Licensing System and Coast Guard Vessel Documentation Center.

Last reported at 2017-Dec-11 17:00 UTC. Time now 2017-Dec-14 02:43 UTC.
Position N 47°37' W 122°26'.

Length 95 m; draft 5.6 m.

Type: Passenger vessel. MMSI: 366749710.

Date/timePositionNaut miles runAvg speedWind from/ knotsBaromVisibWave heightAir tempDewpointWater temp
2017-Dec-11 17:00N 47°37' W 122°26'3 6.0
2017-Dec-11 16:30N 47°37' W 122°31'611.6
2017-Dec-11 16:00N 47°36' W 122°22'0 0.8
2017-Dec-11 15:31N 47°36' W 122°22'611.2
2017-Dec-11 14:58N 47°37' W 122°31'2 5.1
2017-Dec-11 14:30N 47°36' W 122°28'5 9.2
2017-Dec-11 13:58N 47°36' W 122°20'511.8
2017-Dec-11 13:30N 47°36' W 122°28'2 3.3
2017-Dec-11 12:59N 47°37' W 122°31'0 0.0
2017-Dec-11 12:26N 47°37' W 122°31'0 0.0
2017-Dec-11 11:59N 47°37' W 122°31'0 0.0
2017-Dec-11 11:29N 47°37' W 122°31'0 0.0
2017-Dec-11 10:59N 47°37' W 122°31'1 3.0
2017-Dec-11 10:30N 47°36' W 122°29'611.8
2017-Dec-11 10:00N 47°36' W 122°20'612.7
2017-Dec-11 09:30N 47°37' W 122°30'2 3.4
2017-Dec-11 09:00N 47°36' W 122°28'5 9.2
2017-Dec-11 08:30N 47°36' W 122°21'713.3
2017-Dec-11 08:00N 47°37' W 122°30'3 5.4
2017-Dec-11 07:30N 47°36' W 122°27'4 7.5
2017-Dec-11 07:00N 47°36' W 122°21'612.0
2017-Dec-11 06:29N 47°37' W 122°31'4 8.0
2017-Dec-11 06:00N 47°36' W 122°25'3 6.2
2017-Dec-11 05:29N 47°36' W 122°20'613.1
2017-Dec-11 05:00N 47°37' W 122°30'0 0.9
2017-Dec-11 04:30N 47°36' W 122°29'611.0
2017-Dec-11 03:59N 47°36' W 122°20'2 4.6
2017-Dec-11 03:30N 47°37' W 122°24'5 9.5
2017-Dec-11 03:00N 47°37' W 122°31'4 8.2
2017-Dec-11 02:30N 47°36' W 122°25'3 5.8
2017-Dec-11 02:00N 47°36' W 122°20'714.1
2017-Dec-11 01:30N 47°37' W 122°30'1 2.4
2017-Dec-11 01:00N 47°36' W 122°29'611.5
2017-Dec-11 00:29N 47°36' W 122°20'510.0
2017-Dec-11 00:00N 47°36' W 122°27'2 4.5
2017-Dec-10 23:30N 47°37' W 122°31'713.6
2017-Dec-10 23:00N 47°36' W 122°21'1 2.7
2017-Dec-10 22:30N 47°36' W 122°23'510.7
2017-Dec-10 22:00N 47°37' W 122°31'2 4.4
2017-Dec-10 21:30N 47°36' W 122°28'5 8.4
2017-Dec-10 20:54N 47°36' W 122°20'513.1
2017-Dec-10 20:31N 47°37' W 122°28'2 3.6
2017-Dec-10 20:00N 47°37' W 122°31'611.0
2017-Dec-10 19:30N 47°36' W 122°23'1 2.7
2017-Dec-10 18:58N 47°36' W 122°20'613.6
2017-Dec-10 18:30N 47°37' W 122°30'0 0.1
2017-Dec-10 18:00N 47°37' W 122°30'611.8
2017-Dec-10 17:29N 47°36' W 122°20'3 7.4
2017-Dec-10 17:00N 47°37' W 122°26'3 6.4
2017-Dec-10 16:28N 47°37' W 122°31'511.8
2017-Dec-10 16:00N 47°36' W 122°23'1 2.5
2017-Dec-10 15:30N 47°36' W 122°21'712.8
2017-Dec-10 15:00N 47°37' W 122°31'1 2.9
2017-Dec-10 14:31N 47°36' W 122°29'611.6
2017-Dec-10 14:00N 47°36' W 122°20'511.1
2017-Dec-10 13:31N 47°36' W 122°28'2 3.5
2017-Dec-10 12:59N 47°37' W 122°31'0 0.0
2017-Dec-10 12:29N 47°37' W 122°31'0 0.0
2017-Dec-10 11:59N 47°37' W 122°31'0 0.0
2017-Dec-10 11:29N 47°37' W 122°31'0 0.0
2017-Dec-10 10:59N 47°37' W 122°31'4 9.0
2017-Dec-10 10:30N 47°36' W 122°24'3 5.1
2017-Dec-10 10:00N 47°36' W 122°20'613.1
2017-Dec-10 09:30N 47°37' W 122°30'2 4.3
2017-Dec-10 09:00N 47°36' W 122°27'4 8.8
2017-Dec-10 08:30N 47°36' W 122°20'713.7
2017-Dec-10 08:00N 47°37' W 122°30'3 5.1
2017-Dec-10 07:30N 47°37' W 122°27'4 8.5
2017-Dec-10 07:00N 47°36' W 122°21'713.6
2017-Dec-10 06:30N 47°37' W 122°30'3 6.5
2017-Dec-10 06:00N 47°36' W 122°26'4 7.5
2017-Dec-10 05:30N 47°36' W 122°20'612.8
2017-Dec-10 05:00N 47°37' W 122°30'1 1.7
2017-Dec-10 04:30N 47°36' W 122°29'6 7.6
2017-Dec-10 03:46N 47°36' W 122°20'313.3
2017-Dec-10 03:31N 47°37' W 122°25'4 6.9
2017-Dec-10 03:00N 47°37' W 122°31'612.3
2017-Dec-10 02:30N 47°36' W 122°22'2 4.0
2017-Dec-10 02:00N 47°37' W 122°25'4 7.9
2017-Dec-10 01:30N 47°37' W 122°31'611.7
2017-Dec-10 01:01N 47°36' W 122°22'1 2.3
2017-Dec-10 00:30N 47°36' W 122°21'712.8
2017-Dec-09 23:59N 47°37' W 122°31'1 2.5
2017-Dec-09 23:31N 47°36' W 122°29'6 7.4
2017-Dec-09 22:41N 47°36' W 122°20'1 3.4
2017-Dec-09 22:31N 47°36' W 122°21'612.7
2017-Dec-09 22:01N 47°37' W 122°31'3 5.8
2017-Dec-09 21:30N 47°36' W 122°27'4 8.1
2017-Dec-09 21:00N 47°36' W 122°20'612.6
2017-Dec-09 20:30N 47°37' W 122°29'1 1.3
2017-Dec-09 20:00N 47°37' W 122°30'612.1
2017-Dec-09 19:30N 47°36' W 122°21'0 0.8
2017-Dec-09 19:00N 47°36' W 122°21'612.5
2017-Dec-09 18:31N 47°37' W 122°30'2 4.4
2017-Dec-09 18:00N 47°36' W 122°28'5 9.3
2017-Dec-09 17:28N 47°36' W 122°20'4 8.9
2017-Dec-09 17:00N 47°36' W 122°26'3 5.8
2017-Dec-09 16:30N 47°37' W 122°31'611.9
2017-Dec-09 16:01N 47°36' W 122°22'0 0.7
2017-Dec-09 15:30N 47°36' W 122°21'611.6
2017-Dec-09 14:58N 47°37' W 122°31'2 4.4
2017-Dec-09 14:30N 47°36' W 122°28'5 9.9
2017-Dec-09 13:59N 47°36' W 122°20'510.9
2017-Dec-09 13:30N 47°36' W 122°28'2 3.7
2017-Dec-09 12:59N 47°37' W 122°31'0 0.0
2017-Dec-09 12:29N 47°37' W 122°31'0 0.0
2017-Dec-09 11:59N 47°37' W 122°31'0 0.0
2017-Dec-09 11:29N 47°37' W 122°31'0 0.0
2017-Dec-09 10:59N 47°37' W 122°31'0 0.0
2017-Dec-09 10:29N 47°37' W 122°31'0 0.0
2017-Dec-09 09:59N 47°37' W 122°31'0 0.0
2017-Dec-09 09:29N 47°37' W 122°31'0 0.0
2017-Dec-09 08:59N 47°37' W 122°31'0 0.0
2017-Dec-09 08:29N 47°37' W 122°31'0 0.0
2017-Dec-09 08:00N 47°37' W 122°31'0 0.0
2017-Dec-09 07:29N 47°37' W 122°31'0 0.0
2017-Dec-09 06:59N 47°37' W 122°31'1 2.5
2017-Dec-09 06:30N 47°36' W 122°29'611.5
2017-Dec-09 05:59N 47°36' W 122°20'0 0.1
2017-Dec-09 05:30N 47°36' W 122°20'612.7
2017-Dec-09 05:01N 47°37' W 122°30'1 2.5
2017-Dec-09 04:31N 47°36' W 122°28'510.0
2017-Dec-09 03:58N 47°36' W 122°20'3 7.3
2017-Dec-09 03:30N 47°37' W 122°25'4 7.1
2017-Dec-09 03:00N 47°37' W 122°31'713.7
2017-Dec-09 02:30N 47°36' W 122°21'1 1.8
2017-Dec-09 02:00N 47°36' W 122°22'611.0
2017-Dec-09 01:28N 47°37' W 122°31'2 5.5
2017-Dec-09 01:01N 47°36' W 122°27'5 8.7
2017-Dec-09 00:29N 47°36' W 122°20'511.3
2017-Dec-09 00:00N 47°36' W 122°28'2 3.6
2017-Dec-08 23:30N 47°37' W 122°31'713.6
2017-Dec-08 23:00N 47°36' W 122°21'1 1.0
2017-Dec-08 22:31N 47°36' W 122°21'612.7
2017-Dec-08 22:01N 47°37' W 122°31'1 2.1
2017-Dec-08 21:30N 47°37' W 122°29'612.1
2017-Dec-08 21:00N 47°36' W 122°20'5 9.7
2017-Dec-08 20:30N 47°37' W 122°27'2 4.4
2017-Dec-08 20:00N 47°37' W 122°31'611.4
2017-Dec-08 19:31N 47°36' W 122°22'1 2.6
2017-Dec-08 19:00N 47°36' W 122°20'612.5
2017-Dec-08 18:30N 47°36' W 122°29'1 1.2
2017-Dec-08 18:00N 47°37' W 122°30'612.7
2017-Dec-08 17:30N 47°36' W 122°20'4 8.2
2017-Dec-08 17:00N 47°36' W 122°27'3 5.7
2017-Dec-08 16:30N 47°37' W 122°30'612.3
2017-Dec-08 16:01N 47°36' W 122°22'1 1.6
2017-Dec-08 15:30N 47°36' W 122°23'5 9.4
2017-Dec-08 14:56N 47°37' W 122°31'2 5.6
2017-Dec-08 14:30N 47°36' W 122°28'5 9.9
2017-Dec-08 14:00N 47°36' W 122°20'510.8
2017-Dec-08 13:30N 47°36' W 122°28'2 3.5
2017-Dec-08 12:59N 47°37' W 122°31'0 0.0
2017-Dec-08 12:28N 47°37' W 122°31'0 0.0
2017-Dec-08 11:58N 47°37' W 122°31'0 0.0
2017-Dec-08 11:28N 47°37' W 122°31'0 0.0
2017-Dec-08 10:58N 47°37' W 122°31'0 0.0
2017-Dec-08 10:28N 47°37' W 122°31'0 0.0
2017-Dec-08 09:58N 47°37' W 122°31'0 0.0
2017-Dec-08 09:28N 47°37' W 122°31'0 0.0
2017-Dec-08 08:58N 47°37' W 122°31'0 0.0
2017-Dec-08 08:28N 47°37' W 122°31'0 0.0
2017-Dec-08 07:58N 47°37' W 122°31'0 0.0
2017-Dec-08 07:25N 47°37' W 122°31'0 0.0
2017-Dec-08 06:58N 47°37' W 122°31'0 0.6
2017-Dec-08 06:30N 47°37' W 122°30'712.8
2017-Dec-08 05:59N 47°36' W 122°20'0 0.0
2017-Dec-08 05:29N 47°36' W 122°20'612.9
2017-Dec-08 05:00N 47°37' W 122°30'1 1.4
2017-Dec-08 04:31N 47°36' W 122°29'611.2
2017-Dec-08 04:00N 47°36' W 122°20'2 3.5
2017-Dec-08 03:31N 47°37' W 122°23'5 9.8
2017-Dec-08 02:59N 47°37' W 122°31'511.4
2017-Dec-08 02:30N 47°36' W 122°23'2 3.1
2017-Dec-08 02:00N 47°36' W 122°21'712.8
2017-Dec-08 01:28N 47°37' W 122°31'2 4.3
2017-Dec-08 01:00N 47°36' W 122°28'510.2
2017-Dec-08 00:29N 47°36' W 122°20'5 9.9
2017-Dec-08 00:00N 47°36' W 122°27'2 4.6
2017-Dec-07 23:30N 47°37' W 122°31'713.6
2017-Dec-07 23:00N 47°36' W 122°21'0 0.5
2017-Dec-07 22:31N 47°36' W 122°21'713.1
2017-Dec-07 22:00N 47°37' W 122°31'2 3.4
2017-Dec-07 21:30N 47°36' W 122°29'611.0
2017-Dec-07 21:00N 47°36' W 122°20'611.3
2017-Dec-07 20:30N 47°36' W 122°29'2 3.3
2017-Dec-07 20:00N 47°37' W 122°31'510.8
2017-Dec-07 19:30N 47°36' W 122°23'2 3.1
2017-Dec-07 19:00N 47°36' W 122°20'612.6
2017-Dec-07 18:31N 47°36' W 122°29'1 1.5
2017-Dec-07 18:00N 47°37' W 122°30'611.9
2017-Dec-07 17:28N 47°36' W 122°20'3 7.1
2017-Dec-07 17:01N 47°36' W 122°25'4 7.2
2017-Dec-07 16:29N 47°37' W 122°31'511.0
2017-Dec-07 16:00N 47°36' W 122°23'1 1.9
2017-Dec-07 15:30N 47°36' W 122°21'612.2
2017-Dec-07 14:59N 47°37' W 122°31'2 4.0
2017-Dec-07 14:30N 47°36' W 122°29'610.1
2017-Dec-07 13:58N 47°36' W 122°20'510.6
2017-Dec-07 13:31N 47°36' W 122°28'2 4.4
2017-Dec-07 13:00N 47°37' W 122°31'0 0.0
2017-Dec-07 12:30N 47°37' W 122°31'0 0.0
2017-Dec-07 11:57N 47°37' W 122°31'0 0.0
2017-Dec-07 11:30N 47°37' W 122°31'0 0.0
2017-Dec-07 11:00N 47°37' W 122°31'0 0.0
2017-Dec-07 10:30N 47°37' W 122°31'0 0.0
2017-Dec-07 10:00N 47°37' W 122°31'0 0.0
2017-Dec-07 09:27N 47°37' W 122°31'0 0.0
2017-Dec-07 09:00N 47°37' W 122°31'0 0.0
2017-Dec-07 08:30N 47°37' W 122°31'0 0.0
2017-Dec-07 08:00N 47°37' W 122°31'0 0.0
2017-Dec-07 07:30N 47°37' W 122°31'0 0.0
2017-Dec-07 07:00N 47°37' W 122°31'1 1.3
2017-Dec-07 06:30N 47°37' W 122°30'611.8
2017-Dec-07 05:58N 47°36' W 122°20'0 0.0
2017-Dec-07 05:30N 47°36' W 122°20'713.4
2017-Dec-07 05:00N 47°37' W 122°30'1 2.5
2017-Dec-07 04:30N 47°36' W 122°29'611.7
2017-Dec-07 04:00N 47°36' W 122°20'3 5.3
2017-Dec-07 03:30N 47°37' W 122°24'4 8.4
2017-Dec-07 03:00N 47°37' W 122°31'612.4
2017-Dec-07 02:30N 47°36' W 122°22'0 1.0
2017-Dec-07 02:00N 47°36' W 122°21'712.0
2017-Dec-07 01:28N 47°37' W 122°31'2 5.4
2017-Dec-07 01:00N 47°36' W 122°27'5 9.0
2017-Dec-07 00:29N 47°36' W 122°20'511.0
2017-Dec-07 00:00N 47°36' W 122°28'2 3.8
2017-Dec-06 23:31N 47°37' W 122°31'713.7
2017-Dec-06 23:01N 47°36' W 122°21'0 1.0
2017-Dec-06 22:30N 47°36' W 122°21'611.9
2017-Dec-06 21:58N 47°37' W 122°31'2 3.5
2017-Dec-06 21:30N 47°36' W 122°29'611.4
2017-Dec-06 21:00N 47°36' W 122°20'  
2017-Dec-04 10:29N 47°37' W 122°31'0 0.0
2017-Dec-04 09:59N 47°37' W 122°31'0 0.0
2017-Dec-04 09:29N 47°37' W 122°31'0 0.0
2017-Dec-04 08:59N 47°37' W 122°31'0 0.0
2017-Dec-04 08:29N 47°37' W 122°31'0 0.0
2017-Dec-04 07:59N 47°37' W 122°31'0 0.0
2017-Dec-04 07:29N 47°37' W 122°31'4 8.9
2017-Dec-04 07:00N 47°36' W 122°25'3 5.6
2017-Dec-04 06:30N 47°36' W 122°20'510.8
2017-Dec-04 06:00N 47°36' W 122°28'2 3.3
2017-Dec-04 05:30N 47°37' W 122°30'713.7
2017-Dec-04 05:00N 47°36' W 122°20'3 5.0
2017-Dec-04 04:30N 47°36' W 122°24'4 8.3
2017-Dec-04 03:59N 47°37' W 122°31'4 8.4
2017-Dec-04 03:30N 47°37' W 122°25'3 5.8
2017-Dec-04 03:00N 47°36' W 122°20'713.8
2017-Dec-04 02:30N 47°37' W 122°30'0 0.1
2017-Dec-04 02:00N 47°37' W 122°30'713.7
2017-Dec-04 01:30N 47°36' W 122°20'0 1.0
2017-Dec-04 01:00N 47°36' W 122°21'612.6
2017-Dec-04 00:30N 47°37' W 122°31'3 6.3
2017-Dec-04 00:00N 47°36' W 122°26'4 8.1
2017-Dec-03 23:30N 47°36' W 122°20'612.8
2017-Dec-03 23:01N 47°37' W 122°30'0 0.2
2017-Dec-03 22:30N 47°37' W 122°30'612.7
2017-Dec-03 22:00N 47°36' W 122°20'2 4.0
2017-Dec-03 21:30N 47°36' W 122°23'5 8.7
2017-Dec-03 20:56N 47°37' W 122°31'510.7
2017-Dec-03 20:30N 47°36' W 122°24'2 4.6
2017-Dec-03 20:00N 47°36' W 122°20'713.9
2017-Dec-03 19:30N 47°37' W 122°30'0 1.0
2017-Dec-03 19:00N 47°37' W 122°30'612.1
2017-Dec-03 18:29N 47°36' W 122°20'3 6.9
2017-Dec-03 18:00N 47°36' W 122°25'4 7.3
2017-Dec-03 17:30N 47°37' W 122°31'511.1
2017-Dec-03 17:00N 47°36' W 122°23'1 2.6
2017-Dec-03 16:30N 47°35' W 122°21'0 0.2
2017-Dec-03 15:59N 47°35' W 122°21'0 0.0
2017-Dec-03 15:30N 47°35' W 122°21'0 0.0
2017-Dec-03 14:59N 47°35' W 122°21'1 2.0
2017-Dec-03 14:31N 47°36' W 122°21'612.1
2017-Dec-03 14:00N 47°37' W 122°30'1 1.4
2017-Dec-03 13:29N 47°37' W 122°31'0 0.0
2017-Dec-03 12:58N 47°37' W 122°31'0 0.0
2017-Dec-03 12:30N 47°37' W 122°31'0 0.0
2017-Dec-03 12:00N 47°37' W 122°31'0 0.0
2017-Dec-03 11:30N 47°37' W 122°31'0 0.0
2017-Dec-03 11:00N 47°37' W 122°31'0 0.0
2017-Dec-03 10:30N 47°37' W 122°31'0 0.0
2017-Dec-03 10:00N 47°37' W 122°31'0 0.0
2017-Dec-03 09:30N 47°37' W 122°31'0 0.0
2017-Dec-03 09:00N 47°37' W 122°31'0 0.0
2017-Dec-03 08:30N 47°37' W 122°31'0 0.0
2017-Dec-03 07:57N 47°37' W 122°31'0 0.0
2017-Dec-03 07:30N 47°37' W 122°31'2 4.0
2017-Dec-03 07:00N 47°36' W 122°28'5 9.8
2017-Dec-03 06:28N 47°36' W 122°20'4 9.2
2017-Dec-03 06:00N 47°37' W 122°27'3 5.1
2017-Dec-03 05:30N 47°37' W 122°30'713.3
2017-Dec-03 05:00N 47°36' W 122°21'2 4.0
2017-Dec-03 04:31N 47°37' W 122°24'5 9.5
2017-Dec-03 04:00N 47°37' W 122°31'4 8.4
2017-Dec-03 03:30N 47°36' W 122°25'3 5.5
2017-Dec-03 03:00N 47°36' W 122°20'713.8
2017-Dec-03 02:30N 47°37' W 122°30'0 0.2
2017-Dec-03 02:00N 47°37' W 122°31'713.4
2017-Dec-03 01:29N 47°36' W 122°20'1 2.1
2017-Dec-03 01:00N 47°36' W 122°22'610.8
2017-Dec-03 00:28N 47°37' W 122°31'3 7.4
2017-Dec-03 00:01N 47°36' W 122°26'4 7.1
2017-Dec-02 23:29N 47°36' W 122°20'613.1
2017-Dec-02 23:00N 47°37' W 122°30'0 0.8
2017-Dec-02 22:30N 47°37' W 122°30'712.0
2017-Dec-02 21:58N 47°36' W 122°20'3 7.2
2017-Dec-02 21:30N 47°37' W 122°25'4 7.1
2017-Dec-02 20:59N 47°37' W 122°31'5 9.8
2017-Dec-02 20:30N 47°36' W 122°24'2 4.4
2017-Dec-02 20:00N 47°36' W 122°20'713.8
2017-Dec-02 19:30N 47°37' W 122°31'1 1.7
2017-Dec-02 19:00N 47°37' W 122°30'611.5
2017-Dec-02 18:28N 47°36' W 122°20'4 9.2
2017-Dec-02 18:00N 47°37' W 122°27'3 5.3
2017-Dec-02 17:29N 47°37' W 122°31'511.3
2017-Dec-02 17:00N 47°36' W 122°23'1 2.9
2017-Dec-02 16:30N 47°36' W 122°20'612.6
2017-Dec-02 16:00N 47°37' W 122°30'1 2.0
2017-Dec-02 15:30N 47°37' W 122°30'0 0.1
2017-Dec-02 15:00N 47°37' W 122°31'0 0.0
2017-Dec-02 14:30N 47°37' W 122°31'0 0.0
2017-Dec-02 14:00N 47°37' W 122°31'0 0.0
2017-Dec-02 13:30N 47°37' W 122°31'0 0.0
2017-Dec-02 13:00N 47°37' W 122°31'0 0.0
2017-Dec-02 12:30N 47°37' W 122°31'0 0.0
2017-Dec-02 12:00N 47°37' W 122°31'0 0.0
2017-Dec-02 11:30N 47°37' W 122°31'0 0.0
2017-Dec-02 11:00N 47°37' W 122°31'0 0.0
2017-Dec-02 10:27N 47°37' W 122°31'2 5.4
2017-Dec-02 10:00N 47°36' W 122°27'4 8.8
2017-Dec-02 09:30N 47°36' W 122°21'712.7
2017-Dec-02 08:59N 47°37' W 122°31'4 8.0
2017-Dec-02 08:31N 47°36' W 122°25'1 2.7
2017-Dec-02 08:00N 47°36' W 122°23'510.4
2017-Dec-02 07:30N 47°37' W 122°31'611.4
2017-Dec-02 07:00N 47°37' W 122°22'1 2.4
2017-Dec-02 06:29N 47°36' W 122°20'4 8.8
2017-Dec-02 06:00N 47°37' W 122°27'3 5.5
2017-Dec-02 05:30N 47°37' W 122°30'713.2
2017-Dec-02 04:59N 47°36' W 122°20'2 3.8
2017-Dec-02 04:30N 47°36' W 122°23'5 9.3
2017-Dec-02 03:58N 47°37' W 122°31'4 9.1
2017-Dec-02 03:31N 47°36' W 122°25'3 5.3
2017-Dec-02 03:00N 47°36' W 122°21'712.4
2017-Dec-02 02:28N 47°37' W 122°31'2 4.5
2017-Dec-02 02:01N 47°36' W 122°28'510.0
2017-Dec-02 01:30N 47°36' W 122°20'2 3.9
2017-Dec-02 01:01N 47°37' W 122°23'5 9.1
2017-Dec-02 00:28N 47°37' W 122°31'4 8.3
2017-Dec-02 00:00N 47°36' W 122°25'3 6.4
2017-Dec-01 23:30N 47°36' W 122°20'613.2
2017-Dec-01 23:00N 47°37' W 122°30'0 0.5
2017-Dec-01 22:30N 47°37' W 122°30'612.5
2017-Dec-01 22:00N 47°36' W 122°20'2 4.2
2017-Dec-01 21:30N 47°37' W 122°23'5 9.5
2017-Dec-01 21:00N 47°37' W 122°31'4 8.1
2017-Dec-01 20:30N 47°36' W 122°25'3 5.9
2017-Dec-01 20:00N 47°36' W 122°20'713.9
2017-Dec-01 19:30N 47°37' W 122°30'1 3.0
2017-Dec-01 19:00N 47°36' W 122°29'610.4
2017-Dec-01 18:27N 47°36' W 122°20'2 5.1
2017-Dec-01 18:01N 47°37' W 122°24'5 8.9
2017-Dec-01 17:29N 47°37' W 122°31'3 6.3
2017-Dec-01 17:01N 47°36' W 122°27'  

Dump ship's entire track history